Time;durP1;ratioP1;P1;durP2;ratioP2;P2;SDS_P1;SDS_P2;PMS_P1;PMS_P2;Temp;Humidity;BMP_temperature;BMP_pressure;BME280_temperature;BME280_humidity;BME280_pressure;Samples;Min_cycle;Max_cycle;Signal;HPM_P1;HPM_P2
2022/10/30 00:00:24;;;;;;;39.60;23.27;;;;;;;;;;5053771;28;20112;-61
2022/10/30 00:02:50;;;;;;;36.03;22.60;;;;;;;;;;5053746;28;20025;-63
2022/10/30 00:05:16;;;;;;;39.88;24.27;;;;;;;;;;5052387;28;20035;-60
2022/10/30 00:07:42;;;;;;;37.47;22.02;;;;;;;;;;5053991;28;20024;-61
2022/10/30 00:10:09;;;;;;;40.50;23.30;;;;;;;;;;5053587;28;20487;-60
2022/10/30 00:12:34;;;;;;;35.88;22.45;;;;;;;;;;5053855;28;20033;-61
2022/10/30 00:15:00;;;;;;;38.72;23.05;;;;;;;;;;5053604;28;20534;-65
2022/10/30 00:17:25;;;;;;;38.33;23.00;;;;;;;;;;5053724;28;20021;-60
2022/10/30 00:19:51;;;;;;;38.95;23.17;;;;;;;;;;5053394;28;20072;-60
2022/10/30 00:22:16;;;;;;;37.85;24.10;;;;;;;;;;5053372;28;20036;-60
2022/10/30 00:24:42;;;;;;;36.92;22.58;;;;;;;;;;5053240;28;20082;-60
2022/10/30 00:27:07;;;;;;;42.60;22.70;;;;;;;;;;5053531;28;20036;-60
2022/10/30 00:29:33;;;;;;;38.40;22.48;;;;;;;;;;5053343;28;20086;-59
2022/10/30 00:31:58;;;;;;;43.65;23.48;;;;;;;;;;5051838;28;20408;-60
2022/10/30 00:34:24;;;;;;;39.67;23.23;;;;;;;;;;5053463;28;20033;-60
2022/10/30 00:36:50;;;;;;;37.28;22.58;;;;;;;;;;5053449;28;20078;-60
2022/10/30 00:39:15;;;;;;;39.47;22.60;;;;;;;;;;5053060;28;20392;-59
2022/10/30 00:41:41;;;;;;;38.90;23.42;;;;;;;;;;5053033;28;20108;-59
2022/10/30 00:44:34;;;;;;;37.13;22.08;;;;;;;;;;5052960;28;20384;-62
2022/10/30 00:47:05;;;;;;;39.80;22.88;;;;;;;;;;5053204;28;20029;-63
2022/10/30 00:49:36;;;;;;;38.92;22.67;;;;;;;;;;5052924;28;20029;-59
2022/10/30 00:52:07;;;;;;;38.65;23.25;;;;;;;;;;5052894;28;20465;-59
2022/10/30 00:54:33;;;;;;;35.70;22.00;;;;;;;;;;5052776;28;20086;-59
2022/10/30 00:57:00;;;;;;;40.92;23.48;;;;;;;;;;5052636;28;20088;-59
2022/10/30 00:59:31;;;;;;;41.55;23.10;;;;;;;;;;5052702;28;20028;-59
2022/10/30 01:01:57;;;;;;;40.08;22.77;;;;;;;;;;5053109;28;20108;-68
2022/10/30 01:04:24;;;;;;;37.80;22.55;;;;;;;;;;5051624;28;20025;-60
2022/10/30 01:06:51;;;;;;;39.80;23.35;;;;;;;;;;5052753;28;20029;-59
2022/10/30 01:09:21;;;;;;;38.72;24.02;;;;;;;;;;5052608;28;20033;-59
2022/10/30 01:11:47;;;;;;;37.53;23.10;;;;;;;;;;5053178;28;20025;-59
2022/10/30 01:14:16;;;;;;;44.25;23.45;;;;;;;;;;5052816;28;20040;-61
2022/10/30 01:17:12;;;;;;;37.58;23.05;;;;;;;;;;5052874;28;20028;-59
2022/10/30 01:19:56;;;;;;;40.13;23.52;;;;;;;;;;5052508;28;20028;-58
2022/10/30 01:23:05;;;;;;;36.85;22.38;;;;;;;;;;5051128;28;20025;-70
2022/10/30 01:25:53;;;;;;;41.63;23.30;;;;;;;;;;5037949;28;20036;-70
2022/10/30 01:28:33;;;;;;;37.35;21.80;;;;;;;;;;5052181;28;20025;-60
2022/10/30 01:31:27;;;;;;;36.90;22.52;;;;;;;;;;5052399;28;20468;-59
2022/10/30 01:34:17;;;;;;;39.72;22.55;;;;;;;;;;5052256;28;20036;-59
2022/10/30 01:36:46;;;;;;;40.88;23.25;;;;;;;;;;5052527;28;20052;-62
2022/10/30 01:39:16;;;;;;;42.70;22.92;;;;;;;;;;5052280;28;20138;-59
2022/10/30 01:41:43;;;;;;;37.03;21.85;;;;;;;;;;5052214;28;20028;-59
2022/10/30 01:44:15;;;;;;;43.90;23.27;;;;;;;;;;5052556;28;20048;-59
2022/10/30 01:46:53;;;;;;;45.28;23.90;;;;;;;;;;5052354;28;20166;-59
2022/10/30 01:49:29;;;;;;;38.67;22.80;;;;;;;;;;5052207;28;20032;-59
2022/10/30 01:52:07;;;;;;;41.58;23.23;;;;;;;;;;5052107;28;20382;-61
2022/10/30 01:55:11;;;;;;;36.97;22.10;;;;;;;;;;5052472;28;20025;-59
2022/10/30 01:57:55;;;;;;;37.72;22.33;;;;;;;;;;5051431;28;20045;-59
2022/10/30 02:00:22;;;;;;;37.53;23.45;;;;;;;;;;5051966;28;20041;-71
2022/10/30 02:02:50;;;;;;;38.85;22.25;;;;;;;;;;5052302;28;20531;-60
2022/10/30 02:05:44;;;;;;;39.08;22.42;;;;;;;;;;5052230;28;20029;-59
2022/10/30 02:08:10;;;;;;;37.55;22.48;;;;;;;;;;5051939;28;20025;-70
2022/10/30 02:10:37;;;;;;;40.38;22.30;;;;;;;;;;5050738;28;20032;-59
2022/10/30 02:13:02;;;;;;;38.53;22.80;;;;;;;;;;5054554;28;20079;-59
2022/10/30 02:15:29;;;;;;;38.70;22.30;;;;;;;;;;5056049;28;20029;-59
2022/10/30 02:17:55;;;;;;;38.35;22.73;;;;;;;;;;5055750;28;20021;-58
2022/10/30 02:20:20;;;;;;;38.95;22.65;;;;;;;;;;5055719;28;20032;-59
2022/10/30 02:22:46;;;;;;;41.55;22.23;;;;;;;;;;5055914;28;20044;-59
2022/10/30 02:25:13;;;;;;;42.20;22.52;;;;;;;;;;5055858;28;20499;-58
2022/10/30 02:27:38;;;;;;;36.03;23.35;;;;;;;;;;5054719;28;20028;-58
2022/10/30 02:30:05;;;;;;;37.53;22.25;;;;;;;;;;5055876;28;20487;-62
2022/10/30 02:32:30;;;;;;;37.70;21.92;;;;;;;;;;5055566;28;20086;-59
2022/10/30 02:34:56;;;;;;;39.28;22.67;;;;;;;;;;5055440;28;20033;-60
2022/10/30 02:37:23;;;;;;;38.97;23.02;;;;;;;;;;5055464;28;20036;-62
2022/10/30 02:39:49;;;;;;;36.90;22.75;;;;;;;;;;5055392;28;20032;-59
2022/10/30 02:42:14;;;;;;;36.45;22.00;;;;;;;;;;5055293;28;20021;-71
2022/10/30 02:44:40;;;;;;;39.28;22.85;;;;;;;;;;5055277;28;20025;-58
2022/10/30 02:47:05;;;;;;;35.95;21.08;;;;;;;;;;5055316;28;20468;-59
2022/10/30 02:49:31;;;;;;;37.13;22.70;;;;;;;;;;5055146;28;20025;-64
2022/10/30 02:51:56;;;;;;;40.28;22.88;;;;;;;;;;5055468;28;20040;-70
2022/10/30 02:54:22;;;;;;;39.55;22.73;;;;;;;;;;5055152;28;20530;-61
2022/10/30 02:56:47;;;;;;;39.35;22.27;;;;;;;;;;5054842;28;20089;-64
2022/10/30 02:59:13;;;;;;;40.88;23.20;;;;;;;;;;5055098;28;20025;-59
2022/10/30 03:01:38;;;;;;;40.72;22.38;;;;;;;;;;5054979;28;20017;-65
2022/10/30 03:04:04;;;;;;;38.58;23.73;;;;;;;;;;5054949;28;20384;-59
2022/10/30 03:06:29;;;;;;;36.50;22.15;;;;;;;;;;5054909;28;20029;-64
2022/10/30 03:08:55;;;;;;;37.30;22.92;;;;;;;;;;5054817;28;20036;-59
2022/10/30 03:11:20;;;;;;;40.47;23.45;;;;;;;;;;5055137;28;20033;-60
2022/10/30 03:13:47;;;;;;;40.15;22.63;;;;;;;;;;5054814;28;20021;-60
2022/10/30 03:16:21;;;;;;;37.33;21.70;;;;;;;;;;5054914;28;20128;-59
2022/10/30 03:18:47;;;;;;;39.22;23.02;;;;;;;;;;5054661;28;20036;-59
2022/10/30 03:21:16;;;;;;;36.42;22.80;;;;;;;;;;5053420;28;20025;-62
2022/10/30 03:23:42;;;;;;;38.88;22.42;;;;;;;;;;5054795;28;20032;-59
2022/10/30 03:26:08;;;;;;;36.22;21.83;;;;;;;;;;5054429;28;20025;-61
2022/10/30 03:28:33;;;;;;;41.47;24.20;;;;;;;;;;5054486;28;20032;-64
2022/10/30 03:31:05;;;;;;;35.97;22.15;;;;;;;;;;5054744;28;20026;-64
2022/10/30 03:33:31;;;;;;;34.05;21.65;;;;;;;;;;5054669;28;20028;-59
2022/10/30 03:35:57;;;;;;;39.65;22.75;;;;;;;;;;5054595;28;20033;-59
2022/10/30 03:38:23;;;;;;;37.83;22.35;;;;;;;;;;5053074;28;20035;-61
2022/10/30 03:40:49;;;;;;;42.78;25.00;;;;;;;;;;5054220;28;20017;-59
2022/10/30 03:43:14;;;;;;;38.67;23.33;;;;;;;;;;5054230;28;20025;-71
2022/10/30 03:45:49;;;;;;;38.03;22.83;;;;;;;;;;5054103;28;20379;-59
2022/10/30 03:48:15;;;;;;;35.25;21.48;;;;;;;;;;5054391;28;20528;-64
2022/10/30 03:50:41;;;;;;;40.20;23.80;;;;;;;;;;5054076;28;20112;-59
2022/10/30 03:53:06;;;;;;;42.03;24.05;;;;;;;;;;5054228;28;20124;-59
2022/10/30 03:55:32;;;;;;;37.25;22.65;;;;;;;;;;5054247;28;20047;-59
2022/10/30 03:57:57;;;;;;;41.13;22.73;;;;;;;;;;5053822;28;20044;-60
2022/10/30 04:00:23;;;;;;;37.15;23.05;;;;;;;;;;5053922;28;20029;-59
2022/10/30 04:02:50;;;;;;;40.20;22.52;;;;;;;;;;5052740;28;20031;-59
2022/10/30 04:05:18;;;;;;;35.85;22.30;;;;;;;;;;5054048;28;20029;-60
2022/10/30 04:07:44;;;;;;;37.88;22.65;;;;;;;;;;5053737;28;20025;-59
2022/10/30 04:10:11;;;;;;;39.55;22.15;;;;;;;;;;5053734;28;20091;-59
2022/10/30 04:12:36;;;;;;;40.50;23.10;;;;;;;;;;5053610;28;20553;-63
2022/10/30 04:15:02;;;;;;;37.25;21.75;;;;;;;;;;5052391;28;20104;-59
2022/10/30 04:17:28;;;;;;;36.00;22.42;;;;;;;;;;5035714;28;20029;-59
2022/10/30 04:19:53;;;;;;;38.63;22.05;;;;;;;;;;5053817;28;20024;-59
2022/10/30 04:22:19;;;;;;;40.55;22.67;;;;;;;;;;5053807;28;20025;-59
2022/10/30 04:24:44;;;;;;;36.50;22.35;;;;;;;;;;5053488;28;20473;-59
2022/10/30 04:27:12;;;;;;;37.08;21.75;;;;;;;;;;5053532;28;20025;-58
2022/10/30 04:29:37;;;;;;;41.25;23.33;;;;;;;;;;5053472;28;20033;-59
2022/10/30 04:32:03;;;;;;;40.22;22.58;;;;;;;;;;5053357;28;20151;-59
2022/10/30 04:34:30;;;;;;;38.88;23.08;;;;;;;;;;5052815;28;20108;-59
2022/10/30 04:36:55;;;;;;;39.08;22.23;;;;;;;;;;5053287;28;20029;-59
2022/10/30 04:39:21;;;;;;;35.47;21.95;;;;;;;;;;5053188;28;20025;-59
2022/10/30 04:41:47;;;;;;;36.88;21.08;;;;;;;;;;5053110;28;20032;-70
2022/10/30 04:44:13;;;;;;;35.83;21.48;;;;;;;;;;5053018;28;20025;-59
2022/10/30 04:46:38;;;;;;;38.22;21.55;;;;;;;;;;5053104;28;20039;-62
2022/10/30 04:49:03;;;;;;;36.28;22.23;;;;;;;;;;5051657;28;20384;-58
2022/10/30 04:51:29;;;;;;;38.78;22.23;;;;;;;;;;5053144;28;20029;-59
2022/10/30 04:53:54;;;;;;;38.75;21.85;;;;;;;;;;5053089;28;20082;-59
2022/10/30 04:56:20;;;;;;;38.13;22.52;;;;;;;;;;5052861;28;20021;-59
2022/10/30 04:58:45;;;;;;;38.05;21.70;;;;;;;;;;5051657;28;20469;-62
2022/10/30 05:01:11;;;;;;;36.97;21.50;;;;;;;;;;5052733;28;20024;-59
2022/10/30 05:03:37;;;;;;;31.63;20.27;;;;;;;;;;5053040;28;20480;-59
2022/10/30 05:06:06;;;;;;;34.63;21.00;;;;;;;;;;5052594;28;20028;-59
2022/10/30 05:08:32;;;;;;;32.92;20.67;;;;;;;;;;5052593;28;20029;-67
2022/10/30 05:10:58;;;;;;;31.70;20.15;;;;;;;;;;5052880;28;20025;-59
2022/10/30 05:13:24;;;;;;;36.33;21.48;;;;;;;;;;5052833;28;20108;-59
2022/10/30 05:15:50;;;;;;;34.67;20.17;;;;;;;;;;5052808;28;20482;-59
2022/10/30 05:18:15;;;;;;;34.00;21.60;;;;;;;;;;5052537;28;20440;-60
2022/10/30 05:20:41;;;;;;;33.38;21.55;;;;;;;;;;5052476;28;20029;-59
2022/10/30 05:23:07;;;;;;;34.38;21.00;;;;;;;;;;5052474;28;20025;-59
2022/10/30 05:25:33;;;;;;;34.08;21.00;;;;;;;;;;5052321;28;20036;-59
2022/10/30 05:28:01;;;;;;;32.20;20.50;;;;;;;;;;5052727;28;20484;-59
2022/10/30 05:30:27;;;;;;;33.72;20.15;;;;;;;;;;5052359;28;20100;-60
2022/10/30 05:33:01;;;;;;;35.30;20.42;;;;;;;;;;5052279;28;20044;-62
2022/10/30 05:35:27;;;;;;;30.52;20.45;;;;;;;;;;5052425;28;20044;-59
2022/10/30 05:37:53;;;;;;;33.45;21.00;;;;;;;;;;5052297;28;20019;-59
2022/10/30 05:40:19;;;;;;;36.30;21.55;;;;;;;;;;5052534;28;20025;-59
2022/10/30 05:42:46;;;;;;;34.20;20.20;;;;;;;;;;5052292;28;20380;-61
2022/10/30 05:45:11;;;;;;;32.00;19.70;;;;;;;;;;5052330;28;20423;-61
2022/10/30 05:47:37;;;;;;;32.47;20.75;;;;;;;;;;5054235;28;20037;-59
2022/10/30 05:50:03;;;;;;;30.83;19.75;;;;;;;;;;5056619;28;20057;-59
2022/10/30 05:52:29;;;;;;;31.25;20.35;;;;;;;;;;5056309;28;20031;-59
2022/10/30 05:54:54;;;;;;;31.13;20.08;;;;;;;;;;5056528;28;20100;-59
2022/10/30 05:57:20;;;;;;;32.65;19.75;;;;;;;;;;5056049;28;20084;-67
2022/10/30 05:59:46;;;;;;;33.72;20.73;;;;;;;;;;5056144;28;20029;-60
2022/10/30 06:02:11;;;;;;;32.72;20.10;;;;;;;;;;5056125;28;20040;-59
2022/10/30 06:04:37;;;;;;;32.95;19.83;;;;;;;;;;5056086;28;20519;-59
2022/10/30 06:07:02;;;;;;;34.10;19.67;;;;;;;;;;5055979;28;20053;-59
2022/10/30 06:09:28;;;;;;;30.50;19.60;;;;;;;;;;5056098;28;20101;-59
2022/10/30 06:11:54;;;;;;;32.00;20.52;;;;;;;;;;5056126;28;20044;-58
2022/10/30 06:14:19;;;;;;;32.22;20.42;;;;;;;;;;5055889;28;20059;-60
2022/10/30 06:16:46;;;;;;;29.48;18.83;;;;;;;;;;5054876;28;20056;-59
2022/10/30 06:19:11;;;;;;;32.25;20.55;;;;;;;;;;5055836;28;20083;-59
2022/10/30 06:21:37;;;;;;;29.80;18.85;;;;;;;;;;5056031;28;20021;-66
2022/10/30 06:24:03;;;;;;;29.80;19.92;;;;;;;;;;5055602;28;20468;-72
2022/10/30 06:26:28;;;;;;;30.63;19.52;;;;;;;;;;5055802;28;20040;-59
2022/10/30 06:28:54;;;;;;;34.80;19.48;;;;;;;;;;5055603;28;20029;-59
2022/10/30 06:31:20;;;;;;;31.15;19.67;;;;;;;;;;5055773;28;20032;-62
2022/10/30 06:33:45;;;;;;;32.17;20.45;;;;;;;;;;5055829;28;20485;-60
2022/10/30 06:36:11;;;;;;;28.85;18.85;;;;;;;;;;5055440;28;20047;-66
2022/10/30 06:38:36;;;;;;;30.20;19.48;;;;;;;;;;5055386;28;20044;-58
2022/10/30 06:41:02;;;;;;;32.40;19.50;;;;;;;;;;5055722;28;20548;-59
2022/10/30 06:43:27;;;;;;;30.90;19.17;;;;;;;;;;5055424;28;20532;-59
2022/10/30 06:45:53;;;;;;;30.27;19.63;;;;;;;;;;5055253;28;20029;-58
2022/10/30 06:48:18;;;;;;;28.83;19.25;;;;;;;;;;5053980;28;20117;-59
2022/10/30 06:50:44;;;;;;;28.77;18.27;;;;;;;;;;5055438;28;20029;-59
2022/10/30 06:53:09;;;;;;;31.50;19.50;;;;;;;;;;5055431;28;20017;-59
2022/10/30 06:55:35;;;;;;;28.40;19.05;;;;;;;;;;5055175;28;20560;-59
2022/10/30 06:58:00;;;;;;;30.92;19.25;;;;;;;;;;5054470;28;20094;-58
2022/10/30 07:00:26;;;;;;;28.92;18.92;;;;;;;;;;5055080;28;20158;-59
2022/10/30 07:02:56;;;;;;;28.95;18.25;;;;;;;;;;5055054;28;20066;-59
2022/10/30 07:05:21;;;;;;;29.92;18.67;;;;;;;;;;5054685;28;20035;-59
2022/10/30 07:07:47;;;;;;;26.85;18.92;;;;;;;;;;5054879;28;20032;-59
2022/10/30 07:10:12;;;;;;;29.30;18.92;;;;;;;;;;5054846;28;20106;-59
2022/10/30 07:12:38;;;;;;;28.13;19.08;;;;;;;;;;5055100;28;20029;-60
2022/10/30 07:15:04;;;;;;;27.20;18.40;;;;;;;;;;5055147;28;20028;-59
2022/10/30 07:17:29;;;;;;;25.90;18.30;;;;;;;;;;5054750;28;20502;-59
2022/10/30 07:19:55;;;;;;;27.88;18.23;;;;;;;;;;5054977;28;20021;-59
2022/10/30 07:22:20;;;;;;;29.00;18.92;;;;;;;;;;5054561;28;20489;-60
2022/10/30 07:24:46;;;;;;;28.02;19.00;;;;;;;;;;5054513;28;20031;-59
2022/10/30 07:27:11;;;;;;;27.38;18.50;;;;;;;;;;5054376;28;20037;-60
2022/10/30 07:29:37;;;;;;;26.50;18.60;;;;;;;;;;5054774;28;20025;-59
2022/10/30 07:32:03;;;;;;;28.80;17.98;;;;;;;;;;5054679;28;20419;-59
2022/10/30 07:34:29;;;;;;;23.73;17.10;;;;;;;;;;5054632;28;20548;-59
2022/10/30 07:36:54;;;;;;;25.40;17.05;;;;;;;;;;5054227;28;20029;-59
2022/10/30 07:39:20;;;;;;;28.13;18.48;;;;;;;;;;5054522;28;20029;-64
2022/10/30 07:41:49;;;;;;;27.40;17.80;;;;;;;;;;5054162;28;20025;-59
2022/10/30 07:44:15;;;;;;;27.92;18.67;;;;;;;;;;5053962;28;20025;-72
2022/10/30 07:46:40;;;;;;;25.90;17.35;;;;;;;;;;5054052;28;20036;-72
2022/10/30 07:49:06;;;;;;;28.10;18.63;;;;;;;;;;5054022;28;20495;-66
2022/10/30 07:51:31;;;;;;;25.55;16.83;;;;;;;;;;5054352;28;20039;-59
2022/10/30 07:53:57;;;;;;;28.00;18.55;;;;;;;;;;5054064;28;20109;-60
2022/10/30 07:56:22;;;;;;;25.98;18.15;;;;;;;;;;5053957;28;20074;-71
2022/10/30 07:58:48;;;;;;;27.75;18.45;;;;;;;;;;5053837;28;20115;-60
2022/10/30 08:01:13;;;;;;;27.27;17.95;;;;;;;;;;5053944;28;20035;-64
2022/10/30 08:03:39;;;;;;;27.55;17.50;;;;;;;;;;5054109;28;20079;-59
2022/10/30 08:06:05;;;;;;;24.52;17.73;;;;;;;;;;5053980;28;20457;-59
2022/10/30 08:08:31;;;;;;;27.17;18.30;;;;;;;;;;5053991;28;20031;-59
2022/10/30 08:10:57;;;;;;;25.92;17.20;;;;;;;;;;5052806;28;20024;-60
2022/10/30 08:13:22;;;;;;;27.08;18.23;;;;;;;;;;5053922;28;20031;-59
2022/10/30 08:15:48;;;;;;;26.65;17.48;;;;;;;;;;5053576;28;20029;-59
2022/10/30 08:18:14;;;;;;;28.05;18.35;;;;;;;;;;5051023;28;20078;-61
2022/10/30 08:20:39;;;;;;;25.85;18.13;;;;;;;;;;5041517;28;20679;-61
2022/10/30 08:23:05;;;;;;;24.90;17.70;;;;;;;;;;5036103;28;20022;-59
2022/10/30 08:25:31;;;;;;;23.77;16.98;;;;;;;;;;5033358;28;20036;-59
2022/10/30 08:27:59;;;;;;;28.70;17.45;;;;;;;;;;5032203;28;20033;-60
2022/10/30 08:30:28;;;;;;;27.77;17.80;;;;;;;;;;5033370;28;20036;-60
2022/10/30 08:32:58;;;;;;;26.55;17.35;;;;;;;;;;5033413;28;20555;-59
2022/10/30 08:35:24;;;;;;;26.15;16.85;;;;;;;;;;5032056;28;20029;-60
2022/10/30 08:37:51;;;;;;;26.15;17.33;;;;;;;;;;5032109;28;20067;-59
2022/10/30 08:40:16;;;;;;;29.23;17.45;;;;;;;;;;5033239;28;20056;-60
2022/10/30 08:42:48;;;;;;;24.98;16.20;;;;;;;;;;5033197;28;20060;-61
2022/10/30 08:45:14;;;;;;;27.58;17.58;;;;;;;;;;5033193;28;20026;-61
2022/10/30 08:47:39;;;;;;;28.38;17.05;;;;;;;;;;5031837;28;20611;-63
2022/10/30 08:50:05;;;;;;;24.90;17.15;;;;;;;;;;5033087;28;20485;-59
2022/10/30 08:52:31;;;;;;;25.58;17.45;;;;;;;;;;5031991;28;20040;-59
2022/10/30 08:54:56;;;;;;;26.27;17.38;;;;;;;;;;5033013;28;20157;-61
2022/10/30 08:57:22;;;;;;;27.10;17.33;;;;;;;;;;5031650;28;20045;-59
2022/10/30 08:59:49;;;;;;;24.27;16.75;;;;;;;;;;5032903;28;20103;-59
2022/10/30 09:02:14;;;;;;;27.83;17.08;;;;;;;;;;5032727;28;20041;-61
2022/10/30 09:04:40;;;;;;;28.58;18.55;;;;;;;;;;5033069;28;20029;-59
2022/10/30 09:07:05;;;;;;;25.80;17.10;;;;;;;;;;5033035;28;20034;-59
2022/10/30 09:09:31;;;;;;;25.38;17.33;;;;;;;;;;5032741;28;20025;-59
2022/10/30 09:11:56;;;;;;;25.65;17.33;;;;;;;;;;5032816;28;20476;-59
2022/10/30 09:14:22;;;;;;;24.38;16.92;;;;;;;;;;5031509;28;20117;-60
2022/10/30 09:16:48;;;;;;;24.38;16.98;;;;;;;;;;5031788;28;20030;-73
2022/10/30 09:19:13;;;;;;;26.08;17.73;;;;;;;;;;5032616;28;20068;-60
2022/10/30 09:21:39;;;;;;;23.67;16.13;;;;;;;;;;5032675;28;20061;-60
2022/10/30 09:24:04;;;;;;;25.45;17.88;;;;;;;;;;5032541;28;20030;-61
2022/10/30 09:26:31;;;;;;;27.05;17.08;;;;;;;;;;5032711;28;20026;-59
2022/10/30 09:28:56;;;;;;;24.13;16.75;;;;;;;;;;5032763;28;20064;-62
2022/10/30 09:31:22;;;;;;;26.63;17.38;;;;;;;;;;5032670;28;20398;-59
2022/10/30 09:33:48;;;;;;;26.20;17.77;;;;;;;;;;5032248;28;20037;-59
2022/10/30 09:36:13;;;;;;;24.88;16.92;;;;;;;;;;5032275;28;20029;-59
2022/10/30 09:38:39;;;;;;;23.75;16.40;;;;;;;;;;5032387;28;20030;-59
2022/10/30 09:41:18;;;;;;;24.75;15.80;;;;;;;;;;5032255;28;20083;-60
2022/10/30 09:44:12;;;;;;;24.65;16.88;;;;;;;;;;5032457;28;20423;-60
2022/10/30 09:47:21;;;;;;;24.90;17.05;;;;;;;;;;5032233;28;20029;-65
2022/10/30 09:50:02;;;;;;;23.42;16.20;;;;;;;;;;5032266;28;20033;-60
2022/10/30 09:52:29;;;;;;;26.38;16.80;;;;;;;;;;5032160;28;20033;-62
2022/10/30 09:55:01;;;;;;;26.27;17.35;;;;;;;;;;5031975;28;20499;-60
2022/10/30 09:57:38;;;;;;;24.38;16.52;;;;;;;;;;5024151;28;20382;-72
2022/10/30 10:00:17;;;;;;;25.50;16.08;;;;;;;;;;5027063;28;20041;-64
2022/10/30 10:03:07;;;;;;;25.17;16.13;;;;;;;;;;5025505;28;20034;-61
2022/10/30 10:05:54;;;;;;;26.70;18.02;;;;;;;;;;5027589;28;20033;-62
2022/10/30 10:08:25;;;;;;;24.17;16.70;;;;;;;;;;5025555;28;20531;-61
2022/10/30 10:11:04;;;;;;;24.38;16.83;;;;;;;;;;5027277;28;20095;-66
2022/10/30 10:13:57;;;;;;;24.55;16.75;;;;;;;;;;5026974;28;20464;-63
2022/10/30 10:16:27;;;;;;;22.63;16.15;;;;;;;;;;5025000;28;20014;-62
2022/10/30 10:18:59;;;;;;;;;;;;;;;;;;5028668;28;20108;-61
2022/10/30 10:21:27;;;;;;;25.88;16.75;;;;;;;;;;5024980;28;20392;-61
2022/10/30 10:23:59;;;;;;;25.23;17.23;;;;;;;;;;5026542;28;20018;-62
2022/10/30 10:26:36;;;;;;;23.25;16.23;;;;;;;;;;5024532;28;20039;-64
2022/10/30 10:29:07;;;;;;;24.52;16.75;;;;;;;;;;5027038;28;20057;-64
2022/10/30 10:31:54;;;;;;;23.35;16.38;;;;;;;;;;5026449;28;20060;-66
2022/10/30 10:34:39;;;;;;;23.77;16.95;;;;;;;;;;5031320;28;20517;-63
2022/10/30 10:37:14;;;;;;;23.17;16.02;;;;;;;;;;5034122;28;20025;-61
2022/10/30 10:39:46;;;;;;;25.95;17.10;;;;;;;;;;5025352;28;20478;-67
2022/10/30 10:42:23;;;;;;;23.05;15.88;;;;;;;;;;5032021;28;20045;-58
2022/10/30 10:45:07;;;;;;;24.40;16.95;;;;;;;;;;5035439;28;20477;-59
2022/10/30 10:48:05;;;;;;;25.33;16.13;;;;;;;;;;5035596;28;20084;-55
2022/10/30 10:50:40;;;;;;;23.65;16.75;;;;;;;;;;5035640;28;20545;-56
2022/10/30 10:53:14;;;;;;;24.23;16.27;;;;;;;;;;5035331;28;20105;-60
2022/10/30 10:55:47;;;;;;;24.33;16.20;;;;;;;;;;5033500;28;20024;-57
2022/10/30 10:58:25;;;;;;;23.75;16.40;;;;;;;;;;5034110;28;20128;-59
2022/10/30 11:00:51;;;;;;;23.85;16.80;;;;;;;;;;5035018;28;20026;-57
2022/10/30 11:03:21;;;;;;;26.33;17.48;;;;;;;;;;5035274;28;20025;-53
2022/10/30 11:05:50;;;;;;;;;;;;;;;;;;5035295;28;20037;-61
2022/10/30 11:08:29;;;;;;;24.48;16.85;;;;;;;;;;5034911;28;19913;-60
2022/10/30 11:11:07;;;;;;;23.55;16.52;;;;;;;;;;5035102;28;20048;-56
2022/10/30 11:13:41;;;;;;;24.52;16.92;;;;;;;;;;5035045;28;20022;-63
2022/10/30 11:16:12;;;;;;;24.80;17.00;;;;;;;;;;5035206;28;20026;-57
2022/10/30 11:18:39;;;;;;;22.65;16.20;;;;;;;;;;5034809;28;20022;-56
2022/10/30 11:21:09;;;;;;;26.42;17.65;;;;;;;;;;5033304;28;20548;-57
2022/10/30 11:23:43;;;;;;;24.58;16.67;;;;;;;;;;5035245;28;20030;-55
2022/10/30 11:26:21;;;;;;;24.80;16.85;;;;;;;;;;5034564;28;20040;-56
2022/10/30 11:28:53;;;;;;;21.45;16.40;;;;;;;;;;5034653;28;20033;-55
2022/10/30 11:31:22;;;;;;;24.80;16.65;;;;;;;;;;5034866;28;20029;-54
2022/10/30 11:33:48;;;;;;;24.25;16.60;;;;;;;;;;5034893;28;20438;-54
2022/10/30 11:36:16;;;;;;;24.83;17.38;;;;;;;;;;5034369;28;20390;-56
2022/10/30 11:38:42;;;;;;;25.35;16.20;;;;;;;;;;5034808;28;20040;-59
2022/10/30 11:41:11;;;;;;;23.50;17.00;;;;;;;;;;5034485;28;20354;-56
2022/10/30 11:43:39;;;;;;;23.63;16.77;;;;;;;;;;5034241;28;20033;-55
2022/10/30 11:46:09;;;;;;;22.95;16.40;;;;;;;;;;5033360;28;20029;-55
2022/10/30 11:48:38;;;;;;;21.65;15.75;;;;;;;;;;5034372;28;20063;-55
2022/10/30 11:51:05;;;;;;;24.20;17.03;;;;;;;;;;5034580;28;20033;-59
2022/10/30 11:53:41;;;;;;;23.55;16.33;;;;;;;;;;5041912;28;20409;-60
2022/10/30 11:56:15;;;;;;;23.25;16.38;;;;;;;;;;5041910;28;20076;-56
2022/10/30 11:58:48;;;;;;;23.58;17.40;;;;;;;;;;5040479;28;20510;-55
2022/10/30 12:01:21;;;;;;;24.15;16.08;;;;;;;;;;5040826;28;20624;-54
2022/10/30 12:03:47;;;;;;;26.40;17.23;;;;;;;;;;5041977;28;20028;-58
2022/10/30 12:06:39;;;;;;;25.33;17.02;;;;;;;;;;5040079;28;20043;-57
2022/10/30 12:09:14;;;;;;;24.13;17.15;;;;;;;;;;5041304;28;20041;-56
2022/10/30 12:11:43;;;;;;;22.45;16.42;;;;;;;;;;5028903;28;20558;-57
2022/10/30 12:14:23;;;;;;;22.50;15.55;;;;;;;;;;5026383;28;20040;-55
2022/10/30 12:16:51;;;;;;;24.02;15.88;;;;;;;;;;5014200;28;20026;-55
2022/10/30 12:19:20;;;;;;;22.67;16.25;;;;;;;;;;5013873;28;20022;-56
2022/10/30 12:21:48;;;;;;;25.20;17.00;;;;;;;;;;5014122;28;20033;-57
2022/10/30 12:24:28;;;;;;;24.95;16.33;;;;;;;;;;5017409;28;20471;-57
2022/10/30 12:26:54;;;;;;;26.27;16.98;;;;;;;;;;5020652;28;20398;-58
2022/10/30 12:29:38;;;;;;;24.13;16.75;;;;;;;;;;5012433;28;20026;-58
2022/10/30 12:32:14;;;;;;;25.67;16.55;;;;;;;;;;5010874;28;20026;-62
2022/10/30 12:34:44;;;;;;;22.73;15.85;;;;;;;;;;5013566;28;20058;-65
2022/10/30 12:37:16;;;;;;;26.52;16.70;;;;;;;;;;5013449;28;20033;-68
2022/10/30 12:39:44;;;;;;;27.00;16.70;;;;;;;;;;5013604;28;20029;-61
2022/10/30 12:42:16;;;;;;;26.25;17.27;;;;;;;;;;5029921;28;20033;-58
2022/10/30 12:45:18;;;;;;;23.77;16.15;;;;;;;;;;5033389;28;20108;-56
2022/10/30 12:47:59;;;;;;;28.98;17.00;;;;;;;;;;5032927;28;20518;-57
2022/10/30 12:51:04;;;;;;;22.13;15.73;;;;;;;;;;5033064;28;20032;-57
2022/10/30 12:53:48;;;;;;;24.73;16.58;;;;;;;;;;5041288;28;20083;-67
2022/10/30 12:56:27;;;;;;;23.45;16.33;;;;;;;;;;5032049;28;20101;-66
2022/10/30 12:59:16;;;;;;;23.48;15.75;;;;;;;;;;5032631;28;20029;-66
2022/10/30 13:01:58;;;;;;;26.20;16.17;;;;;;;;;;5031004;28;20028;-66
2022/10/30 13:04:34;;;;;;;23.08;16.30;;;;;;;;;;5031905;28;20050;-68
2022/10/30 13:07:21;;;;;;;22.73;16.35;;;;;;;;;;5032160;28;20029;-67
2022/10/30 13:10:07;;;;;;;21.75;15.82;;;;;;;;;;5032495;28;20410;-69
2022/10/30 13:12:39;;;;;;;23.50;16.75;;;;;;;;;;5032667;28;20048;-69
2022/10/30 13:15:24;;;;;;;25.67;17.25;;;;;;;;;;5032869;28;20137;-69
2022/10/30 13:17:50;;;;;;;24.92;16.63;;;;;;;;;;5025563;28;20110;-68
2022/10/30 13:20:17;;;;;;;23.23;16.00;;;;;;;;;;5012994;28;20493;-59
2022/10/30 13:22:51;;;;;;;24.90;16.75;;;;;;;;;;5012852;28;20104;-60
2022/10/30 13:25:23;;;;;;;21.52;15.40;;;;;;;;;;5012899;28;20022;-64
2022/10/30 13:27:59;;;;;;;23.38;16.63;;;;;;;;;;5012043;28;20520;-68
2022/10/30 13:30:30;;;;;;;26.50;17.05;;;;;;;;;;5012330;28;20401;-63
2022/10/30 13:33:27;;;;;;;25.23;16.45;;;;;;;;;;5018130;28;20052;-69
2022/10/30 13:35:58;;;;;;;27.63;16.55;;;;;;;;;;5015032;28;20506;-61
2022/10/30 13:38:29;;;;;;;23.92;16.58;;;;;;;;;;5012774;28;20363;-59
2022/10/30 13:41:04;;;;;;;22.27;16.33;;;;;;;;;;5013001;28;20084;-70
2022/10/30 13:43:55;;;;;;;23.15;16.52;;;;;;;;;;5012948;28;20428;-66
2022/10/30 13:46:51;;;;;;;25.33;15.73;;;;;;;;;;5012594;28;20030;-69
2022/10/30 13:49:41;;;;;;;23.75;16.88;;;;;;;;;;5037915;28;20057;-57
2022/10/30 13:52:16;;;;;;;22.85;16.08;;;;;;;;;;5011080;28;20041;-71
2022/10/30 13:55:20;;;;;;;21.73;15.85;;;;;;;;;;5011319;28;20060;-68
2022/10/30 13:58:04;;;;;;;24.30;16.85;;;;;;;;;;5010819;28;20129;-70
2022/10/30 14:00:32;;;;;;;23.63;16.55;;;;;;;;;;5010977;28;20029;-65
2022/10/30 14:03:16;;;;;;;24.77;16.55;;;;;;;;;;5010765;28;20120;-64
2022/10/30 14:05:54;;;;;;;23.10;16.38;;;;;;;;;;5010849;28;20073;-57
2022/10/30 14:08:37;;;;;;;23.42;16.50;;;;;;;;;;5012227;28;20053;-68
2022/10/30 14:11:05;;;;;;;23.58;16.40;;;;;;;;;;5015003;28;20022;-63
2022/10/30 14:13:56;;;;;;;21.48;15.43;;;;;;;;;;5014734;28;20026;-64
2022/10/30 14:16:41;;;;;;;22.42;16.33;;;;;;;;;;5015012;28;20048;-65
2022/10/30 14:19:15;;;;;;;24.88;16.83;;;;;;;;;;5014652;28;20066;-60
2022/10/30 14:21:57;;;;;;;21.67;15.32;;;;;;;;;;5015089;28;20437;-61
2022/10/30 14:24:31;;;;;;;22.63;16.38;;;;;;;;;;5014540;28;20059;-65
2022/10/30 14:27:03;;;;;;;23.50;16.23;;;;;;;;;;5014524;28;20038;-55
2022/10/30 14:29:34;;;;;;;24.98;15.95;;;;;;;;;;5014527;28;20046;-56
2022/10/30 14:32:18;;;;;;;24.50;16.45;;;;;;;;;;5014274;28;20577;-57
2022/10/30 14:34:49;;;;;;;22.23;16.10;;;;;;;;;;5022322;28;20510;-69
2022/10/30 14:37:20;;;;;;;20.83;14.70;;;;;;;;;;5017168;28;20041;-59